Santiago, Dominican Republic
Current Conditions -  °F | °C
As of 12:00 PM on Friday 21 Nov 2014 (Local Time) from MDST Reporting Station
Scattered Clouds Scattered Clouds  
Wind Chill: 84°   Ceiling: Unl
Heat Index: 88°   Visibility: 6mi
Dew Point: 70°   Wind: 12mph
Humidity: 62%   Direction: 120°ESE
Pressure: 30.03"   Gusts: NA
Location:  19.48°N, 70.69°W
Report Text: MDST 211600Z 12010KT 9999 SCT024 29/21 Q1017
Loading
Personal Weather Stations






























Interactive Weather Map New forecast layout! Learn more

10-Day Weather Forecast

Advertisements
Track Severe Weather on mobile